createdAt,value
2023-01-19T05:16:37.819Z,-4.10
2023-01-19T05:19:04.341Z,-3.66
2023-01-19T05:21:31.188Z,-3.57
2023-01-19T05:23:57.903Z,-3.38
2023-01-19T05:26:24.396Z,-3.66
2023-01-19T05:28:52.140Z,-3.66
2023-01-19T05:31:20.724Z,-3.47
2023-01-19T05:33:49.023Z,-3.74
2023-01-19T05:36:15.600Z,-3.53
2023-01-19T05:38:42.169Z,-3.75
2023-01-19T05:41:08.656Z,-3.91
2023-01-19T05:43:35.186Z,-3.78
2023-01-19T05:46:03.989Z,-3.65
2023-01-19T05:48:30.686Z,-3.49
2023-01-19T05:50:58.985Z,-3.38
2023-01-19T05:53:26.380Z,-3.62
2023-01-19T05:55:52.934Z,-3.58
2023-01-19T05:58:22.600Z,-3.83
2023-01-19T06:00:49.114Z,-3.84
2023-01-19T06:03:15.709Z,-3.86
2023-01-19T06:05:42.343Z,-3.66
2023-01-19T06:08:08.887Z,-3.73
2023-01-19T06:10:35.477Z,-3.55
2023-01-19T06:13:02.360Z,-3.20
2023-01-19T06:15:29.126Z,-3.86
2023-01-19T06:17:55.622Z,-3.39
2023-01-19T06:20:22.413Z,-3.46
2023-01-19T06:22:49.007Z,-3.52
2023-01-19T06:25:15.715Z,-3.33
2023-01-19T06:27:46.123Z,-3.56
2023-01-19T06:30:13.647Z,-3.33
2023-01-19T06:32:40.691Z,-3.43
2023-01-19T06:35:07.929Z,-2.68
2023-01-19T06:37:35.065Z,-2.82
2023-01-19T06:40:01.809Z,-2.90
2023-01-19T06:42:28.508Z,-3.10
2023-01-19T06:44:55.008Z,-2.80
2023-01-19T06:47:21.645Z,-3.28
2023-01-19T06:49:49.045Z,-3.35
2023-01-19T06:52:17.413Z,-3.07
2023-01-19T06:54:47.165Z,-2.92
2023-01-19T06:57:14.859Z,-2.96
2023-01-19T06:59:44.555Z,-2.51
2023-01-19T07:02:27.985Z,-2.90
2023-01-19T07:05:01.022Z,-2.72
2023-01-19T07:07:54.895Z,-3.18
2023-01-19T07:10:21.923Z,-2.98
2023-01-19T07:12:48.660Z,-2.75
2023-01-19T07:15:17.135Z,-2.75
2023-01-19T07:17:44.229Z,-2.99
2023-01-19T07:20:14.170Z,-2.31
2023-01-19T07:22:41.791Z,-2.42
2023-01-19T07:25:08.725Z,-2.01
2023-01-19T07:27:36.465Z,-2.57
2023-01-19T07:30:04.557Z,-2.73
2023-01-19T07:32:31.312Z,-2.26
2023-01-19T07:34:57.756Z,-2.10
2023-01-19T07:37:24.170Z,-2.44
2023-01-19T07:39:50.616Z,-2.18
2023-01-19T07:42:17.157Z,-2.07
2023-01-19T07:44:43.620Z,-1.98
2023-01-19T07:47:12.600Z,-2.03
2023-01-19T07:49:39.680Z,-1.56
2023-01-19T07:52:06.223Z,-1.99
2023-01-19T07:54:33.156Z,-1.76
2023-01-19T07:57:00.785Z,-1.93
2023-01-19T07:59:31.019Z,-1.33
2023-01-19T08:01:59.437Z,-1.05
2023-01-19T08:04:27.506Z,-1.00
2023-01-19T08:06:55.389Z,-0.77
2023-01-19T08:09:24.434Z,-0.61
2023-01-19T08:11:50.938Z,-0.48
2023-01-19T08:14:17.554Z,-0.41
2023-01-19T08:16:44.133Z,-0.39
2023-01-19T08:19:10.568Z,-0.18
2023-01-19T08:21:38.817Z,-0.19
2023-01-19T08:24:05.641Z,-0.49
2023-01-19T08:26:34.907Z,-0.83
2023-01-19T08:29:04.181Z,-1.14
2023-01-19T08:31:31.223Z,-1.09
2023-01-19T08:33:58.092Z,-1.53
2023-01-19T08:36:25.113Z,-0.97
2023-01-19T08:38:52.217Z,-1.25
2023-01-19T08:41:23.944Z,-1.37
2023-01-19T08:43:50.496Z,-1.39
2023-01-19T08:46:17.617Z,-1.86
2023-01-19T08:48:45.166Z,-1.77
2023-01-19T08:51:16.189Z,-1.69
2023-01-19T08:53:43.237Z,-1.14
2023-01-19T08:56:14.237Z,-2.08
2023-01-19T08:58:42.243Z,-1.75
2023-01-19T09:01:09.956Z,-1.25
2023-01-19T09:03:40.484Z,-1.52
2023-01-19T09:06:08.178Z,-1.48
2023-01-19T09:08:35.801Z,-1.02
2023-01-19T09:11:02.640Z,-1.00
2023-01-19T09:13:29.187Z,-1.52
2023-01-19T09:15:55.686Z,-0.99
2023-01-19T09:18:23.245Z,-1.19
2023-01-19T09:20:50.421Z,-1.26
2023-01-19T09:23:20.793Z,-1.66
2023-01-19T09:25:48.345Z,-1.37
2023-01-19T09:28:17.521Z,-1.18
2023-01-19T09:30:44.985Z,-1.22
2023-01-19T09:33:15.221Z,-1.41
2023-01-19T09:35:46.284Z,-1.28
2023-01-19T09:38:15.164Z,-1.04
2023-01-19T09:40:45.131Z,-1.27
2023-01-19T09:43:25.183Z,-1.18
2023-01-19T09:45:52.987Z,-1.23
2023-01-19T09:48:50.864Z,-1.22
2023-01-19T09:51:38.011Z,-0.57
2023-01-19T09:54:31.623Z,-1.09
2023-01-19T09:56:58.141Z,-0.99
2023-01-19T09:59:32.097Z,-0.82
2023-01-19T10:02:37.121Z,-1.07
2023-01-19T10:05:12.203Z,-0.91
2023-01-19T10:08:03.536Z,-1.05
2023-01-19T10:10:42.329Z,-0.96
2023-01-19T10:14:02.791Z,-0.59
2023-01-19T10:16:45.649Z,-1.01
2023-01-19T10:19:31.119Z,-0.71
2023-01-19T10:22:06.119Z,-0.51
2023-01-19T10:24:41.732Z,-0.82
2023-01-19T10:27:31.164Z,-0.81
2023-01-19T10:29:59.038Z,-0.49
2023-01-19T10:32:35.761Z,-0.28
2023-01-19T10:35:21.494Z,0.01
2023-01-19T10:37:48.318Z,-0.20
2023-01-19T10:40:44.768Z,0.04
2023-01-19T10:43:35.362Z,-0.38
2023-01-19T10:46:31.104Z,-0.58
2023-01-19T10:48:57.868Z,-1.08
2023-01-19T10:51:24.632Z,-0.86
2023-01-19T10:54:00.631Z,-0.78
2023-01-19T10:56:38.361Z,-0.98
2023-01-19T10:59:07.051Z,-1.22
2023-01-19T11:01:37.014Z,-1.21
2023-01-19T11:04:29.365Z,-0.58
2023-01-19T11:07:19.591Z,-0.93
2023-01-19T11:09:47.297Z,-1.18
2023-01-19T11:12:23.399Z,-0.71
2023-01-19T11:14:51.773Z,-1.03
2023-01-19T11:17:28.520Z,-0.86
2023-01-19T11:20:01.856Z,-0.71
2023-01-19T11:22:33.526Z,-0.77
2023-01-19T11:25:02.386Z,-0.81
2023-01-19T11:27:30.888Z,-1.12
2023-01-19T11:30:05.251Z,-0.84
2023-01-19T11:32:33.140Z,-1.24
2023-01-19T11:34:59.995Z,-1.45
2023-01-19T11:37:31.710Z,-1.32
2023-01-19T11:40:00.112Z,-0.73
2023-01-19T11:42:30.060Z,-0.67
2023-01-19T11:45:13.158Z,-0.27
2023-01-19T11:47:52.446Z,-0.73
2023-01-19T11:50:25.176Z,-1.04
2023-01-19T11:53:17.371Z,-0.65
2023-01-19T11:55:50.729Z,-1.12
2023-01-19T11:58:19.219Z,-0.93
2023-01-19T12:00:48.455Z,-1.10
2023-01-19T12:03:26.153Z,-0.69
2023-01-19T12:05:56.870Z,-0.40
2023-01-19T12:08:30.657Z,-0.48
2023-01-19T12:10:59.849Z,-0.48
2023-01-19T12:13:28.610Z,-1.32
2023-01-19T12:16:01.363Z,-0.91
2023-01-19T12:18:33.779Z,-0.91
2023-01-19T12:21:02.868Z,-1.09
2023-01-19T12:23:38.983Z,-1.18
2023-01-19T12:26:35.776Z,-1.30
2023-01-19T12:29:14.364Z,-1.20
2023-01-19T12:31:43.227Z,-1.18
2023-01-19T12:34:25.957Z,-1.22
2023-01-19T12:37:01.161Z,-1.27
2023-01-19T12:39:27.679Z,-1.09
2023-01-19T12:42:15.277Z,-1.24
2023-01-19T12:44:43.657Z,-1.31
2023-01-19T12:47:14.345Z,-1.10
2023-01-19T12:49:44.515Z,-0.97
2023-01-19T12:52:26.641Z,-0.92
2023-01-19T12:55:15.277Z,-0.91
2023-01-19T12:57:50.461Z,-1.12
2023-01-19T13:00:23.108Z,-1.45
2023-01-19T13:02:56.816Z,-1.03
2023-01-19T13:05:32.841Z,-1.16
2023-01-19T13:08:06.231Z,-1.45
2023-01-19T13:10:59.357Z,-1.07
2023-01-19T13:13:42.283Z,-1.32
2023-01-19T13:16:18.167Z,-1.08
2023-01-19T13:19:05.227Z,-0.74
2023-01-19T13:21:44.711Z,-1.19
2023-01-19T13:24:14.942Z,-1.20
2023-01-19T13:26:49.188Z,-1.06
2023-01-19T13:29:26.864Z,-1.05
2023-01-19T13:31:56.113Z,-1.02
2023-01-19T13:34:27.763Z,-0.81
2023-01-19T13:36:56.361Z,-1.42
2023-01-19T13:39:34.795Z,-1.11
2023-01-19T13:42:06.654Z,-0.68
2023-01-19T13:44:51.370Z,-0.90
2023-01-19T13:47:46.642Z,-0.68
2023-01-19T13:50:39.657Z,-1.09
2023-01-19T13:53:20.977Z,-0.89
2023-01-19T13:55:50.367Z,-1.39
2023-01-19T13:58:23.844Z,-1.59
2023-01-19T14:00:50.439Z,-1.25
2023-01-19T14:03:25.030Z,-1.43
2023-01-19T14:05:53.955Z,-1.14
2023-01-19T14:08:21.652Z,-1.29
2023-01-19T14:10:52.348Z,-1.11
2023-01-19T14:13:32.104Z,-1.26
2023-01-19T14:16:05.483Z,-1.39
2023-01-19T14:18:34.194Z,-1.17
2023-01-19T14:21:09.897Z,-1.19
2023-01-19T14:24:13.032Z,-1.26
2023-01-19T14:26:54.714Z,-1.18
2023-01-19T14:29:32.643Z,-1.18
2023-01-19T14:32:21.270Z,-1.16
2023-01-19T14:35:12.379Z,-0.77
2023-01-19T14:37:50.838Z,-0.96
2023-01-19T14:40:20.192Z,-1.10
2023-01-19T14:43:03.320Z,-1.55
2023-01-19T14:45:42.857Z,-1.43
2023-01-19T14:51:20.271Z,-1.50
2023-01-19T14:53:51.224Z,-1.21
2023-01-19T14:56:30.295Z,-1.34
2023-01-19T14:58:58.217Z,-1.31
2023-01-19T15:01:31.081Z,-1.26
2023-01-19T15:03:58.662Z,-0.88
2023-01-19T15:06:26.440Z,-0.90
2023-01-19T15:08:53.628Z,-0.80
2023-01-19T15:11:33.857Z,-1.04
2023-01-19T15:14:01.275Z,-0.64
2023-01-19T15:16:29.758Z,-0.79
2023-01-19T15:18:56.518Z,-0.79
2023-01-19T15:21:28.558Z,-0.58
2023-01-19T15:23:55.562Z,-0.84
2023-01-19T15:26:26.926Z,-0.84
2023-01-19T15:28:53.784Z,-0.74
2023-01-19T15:31:23.022Z,-0.87
2023-01-19T15:33:49.919Z,-0.43
2023-01-19T15:36:19.662Z,-0.04
2023-01-19T15:38:47.131Z,0.23
2023-01-19T15:41:32.108Z,0.48
2023-01-19T15:43:58.931Z,0.27
2023-01-19T15:46:26.078Z,-0.02
2023-01-19T15:48:53.497Z,0.16
2023-01-19T15:51:22.803Z,-0.41
2023-01-19T15:53:50.567Z,0.11
2023-01-19T15:56:21.847Z,-0.38
2023-01-19T15:58:48.333Z,-0.46
2023-01-19T16:01:20.319Z,-0.25
2023-01-19T16:03:49.522Z,-0.27
2023-01-19T16:06:16.505Z,-0.24
2023-01-19T16:08:43.390Z,-0.41
2023-01-19T16:11:12.571Z,-1.08
2023-01-19T16:13:39.879Z,-1.19
2023-01-19T16:16:13.693Z,-0.98
2023-01-19T16:18:40.484Z,-0.96
2023-01-19T16:21:07.051Z,-0.84
2023-01-19T16:23:33.584Z,-1.09
2023-01-19T16:26:09.221Z,-0.91
2023-01-19T16:28:37.462Z,-0.93
2023-01-19T16:31:04.925Z,-1.08
2023-01-19T16:33:31.462Z,-1.11
2023-01-19T16:36:19.683Z,-1.30
2023-01-19T16:38:46.389Z,-1.27
2023-01-19T16:41:12.980Z,-0.98
2023-01-19T16:43:39.594Z,-0.77
2023-01-19T16:46:06.275Z,-0.61
2023-01-19T16:48:32.914Z,-0.84
2023-01-19T16:51:05.524Z,-0.94
2023-01-19T16:53:37.139Z,-1.00
2023-01-19T16:56:08.520Z,-0.89
2023-01-19T16:58:37.427Z,-0.56
2023-01-19T17:01:19.893Z,-0.30
2023-01-19T17:03:47.437Z,-0.38
2023-01-19T17:06:20.303Z,-0.13
2023-01-19T17:08:47.463Z,-0.19
2023-01-19T17:11:20.787Z,-0.49
2023-01-19T17:13:56.776Z,-0.37
2023-01-19T17:16:24.660Z,-0.69
2023-01-19T17:18:51.441Z,-0.66
2023-01-19T17:21:19.368Z,-0.83
2023-01-19T17:23:48.016Z,-0.79
2023-01-19T17:26:15.025Z,-0.56
2023-01-19T17:28:41.755Z,-0.68
2023-01-19T17:31:10.990Z,-0.22
2023-01-19T17:33:38.484Z,-0.52
2023-01-19T17:36:07.407Z,-1.00
2023-01-19T17:38:34.992Z,-0.98
2023-01-19T17:41:01.877Z,-1.22
2023-01-19T17:43:31.288Z,-1.17
2023-01-19T17:46:01.479Z,-0.79
2023-01-19T17:48:27.935Z,-0.92
2023-01-19T17:50:55.634Z,-0.80
2023-01-19T17:53:22.047Z,-0.34
2023-01-19T17:55:48.502Z,-0.96
2023-01-19T17:58:14.905Z,-0.38
2023-01-19T18:00:41.373Z,-0.65
2023-01-19T18:03:07.780Z,-0.75
2023-01-19T18:05:34.310Z,-0.57
2023-01-19T18:08:00.925Z,-0.46
2023-01-19T18:10:27.403Z,-0.69
2023-01-19T18:12:54.199Z,-0.50
2023-01-19T18:15:20.664Z,-1.01
2023-01-19T18:17:47.111Z,-1.18
2023-01-19T18:20:13.988Z,-0.81
2023-01-19T18:22:40.908Z,-1.01
2023-01-19T18:25:07.635Z,-1.11
2023-01-19T18:27:34.183Z,-1.13
2023-01-19T18:30:00.688Z,-1.30
2023-01-19T18:32:27.362Z,-1.29
2023-01-19T18:34:54.164Z,-1.16
2023-01-19T18:37:26.002Z,-1.39
2023-01-19T18:39:54.358Z,-0.58
2023-01-19T18:42:25.023Z,-1.09
2023-01-19T18:44:51.518Z,-0.96
2023-01-19T18:47:18.209Z,-1.02
2023-01-19T18:49:44.685Z,-1.22
2023-01-19T18:52:11.411Z,-0.66
2023-01-19T18:54:37.902Z,-0.37
2023-01-19T18:57:04.435Z,-0.10
2023-01-19T18:59:31.056Z,0.02
2023-01-19T19:02:01.253Z,0.02
2023-01-19T19:04:27.851Z,0.16
2023-01-19T19:06:55.515Z,0.01
2023-01-19T19:09:22.002Z,-0.24
2023-01-19T19:11:48.578Z,-0.79
2023-01-19T19:14:15.304Z,-1.08
2023-01-19T19:16:41.960Z,-1.16
2023-01-19T19:19:11.941Z,-1.28
2023-01-19T19:21:38.554Z,-0.83
2023-01-19T19:24:06.651Z,-0.50
2023-01-19T19:26:33.526Z,-0.25
2023-01-19T19:29:04.388Z,-0.28
2023-01-19T19:31:34.626Z,-0.58
2023-01-19T19:34:01.556Z,-0.54
2023-01-19T19:36:31.853Z,-0.27
2023-01-19T19:38:59.485Z,-0.20
2023-01-19T19:41:27.991Z,-0.50
2023-01-19T19:43:55.813Z,-0.63
2023-01-19T19:46:28.817Z,-0.94
2023-01-19T19:48:57.604Z,-1.21
2023-01-19T19:51:29.282Z,-1.53
2023-01-19T19:53:58.800Z,-1.63
2023-01-19T19:56:26.814Z,-1.79
2023-01-19T19:58:59.053Z,-1.88
2023-01-19T20:01:33.400Z,-1.86
2023-01-19T20:04:11.885Z,-1.91
2023-01-19T20:06:41.040Z,-1.51
2023-01-19T20:09:10.394Z,-1.79
2023-01-19T20:11:37.849Z,-1.83
2023-01-19T20:14:05.651Z,-1.73
2023-01-19T20:16:32.671Z,-1.71
2023-01-19T20:18:59.183Z,-2.09
2023-01-19T20:21:29.905Z,-1.85
2023-01-19T20:24:03.026Z,-2.24
2023-01-19T20:26:33.204Z,-1.90
2023-01-19T20:29:10.174Z,-2.03
2023-01-19T20:31:51.356Z,-1.73
2023-01-19T20:34:19.913Z,-1.89
2023-01-19T20:36:51.158Z,-1.85
2023-01-19T20:39:25.759Z,-2.06
2023-01-19T20:41:52.632Z,-1.99
2023-01-19T20:44:24.728Z,-1.76
2023-01-19T20:46:52.010Z,-1.85
2023-01-19T20:49:18.615Z,-1.83
2023-01-19T20:51:46.813Z,-1.89
2023-01-19T20:54:15.913Z,-1.74
2023-01-19T20:56:45.481Z,-1.72
2023-01-19T20:59:12.537Z,-1.91
2023-01-19T21:01:40.217Z,-1.93
2023-01-19T21:04:06.956Z,-1.65
2023-01-19T21:06:33.801Z,-1.59
2023-01-19T21:09:00.368Z,-1.48
2023-01-19T21:11:27.631Z,-1.69
2023-01-19T21:13:56.456Z,-1.60
2023-01-19T21:16:26.843Z,-2.00
2023-01-19T21:18:53.769Z,-1.91
2023-01-19T21:21:30.392Z,-2.05
2023-01-19T21:24:01.742Z,-2.23
2023-01-19T21:26:33.175Z,-2.36
2023-01-19T21:29:00.739Z,-2.16
2023-01-19T21:31:28.358Z,-2.09
2023-01-19T21:33:56.160Z,-2.09
2023-01-19T21:36:23.840Z,-2.03
2023-01-19T21:38:52.310Z,-1.58
2023-01-19T21:41:19.019Z,-1.67
2023-01-19T21:43:46.179Z,-1.63
2023-01-19T21:46:17.716Z,-1.16
2023-01-19T21:48:45.745Z,-1.56
2023-01-19T21:51:13.018Z,-1.98
2023-01-19T21:53:40.244Z,-1.68
2023-01-19T21:56:11.154Z,-2.38
2023-01-19T21:58:37.862Z,-1.99
2023-01-19T22:01:08.643Z,-2.52
2023-01-19T22:03:35.256Z,-2.48
2023-01-19T22:06:06.757Z,-2.50
2023-01-19T22:08:33.680Z,-2.28
2023-01-19T22:11:08.197Z,-2.54
2023-01-19T22:13:38.418Z,-2.68
2023-01-19T22:16:08.737Z,-2.89
2023-01-19T22:18:39.988Z,-2.63
2023-01-19T22:21:22.616Z,-1.97
2023-01-19T22:23:51.104Z,-1.94
2023-01-19T22:26:18.122Z,-2.03
2023-01-19T22:28:44.953Z,-2.33
2023-01-19T22:31:13.729Z,-2.40
2023-01-19T22:33:41.090Z,-2.25
2023-01-19T22:36:26.956Z,-2.15
2023-01-19T22:38:55.732Z,-1.66
2023-01-19T22:41:29.596Z,-2.00
2023-01-19T22:43:58.536Z,-2.35
2023-01-19T22:46:27.850Z,-2.38
2023-01-19T22:48:55.349Z,-2.30
2023-01-19T22:51:22.677Z,-2.61
2023-01-19T22:53:49.352Z,-2.36
2023-01-19T22:56:17.230Z,-2.24
2023-01-19T22:58:44.681Z,-2.05
